Time,TemperatureF,DewpointF,PressureIn,WindDirection,WindDirectionDegrees,WindSpeedMPH,WindSpeedGustMPH,Humidity,HourlyPrecipIn,Conditions,Clouds,dailyrainin,SoftwareType,DateUTC
2013-04-06 00:03:00,51.6,51.1,30.19,West,264,0.0,7.0,98,0.00,,,0.05,meteohub,2013-04-06 07:03:00,
2013-04-06 00:09:00,51.6,51.1,30.19,WSW,251,2.0,7.0,98,0.00,,,0.00,meteohub,2013-04-06 07:09:00,
2013-04-06 00:14:00,51.6,51.1,30.19,WSW,257,0.0,8.0,98,0.00,,,0.00,meteohub,2013-04-06 07:14:00,
2013-04-06 00:19:00,51.6,51.1,30.19,WSW,257,4.0,8.0,98,0.00,,,0.00,meteohub,2013-04-06 07:19:00,
2013-04-06 00:24:00,51.6,51.1,30.19,WSW,257,2.0,8.0,98,0.00,,,0.00,meteohub,2013-04-06 07:24:00,
2013-04-06 00:30:00,51.6,51.1,30.19,WSW,257,0.0,5.0,98,0.00,,,0.00,meteohub,2013-04-06 07:30:00,
2013-04-06 00:35:00,51.6,51.1,30.19,WSW,257,1.0,6.0,98,0.00,,,0.00,meteohub,2013-04-06 07:35:00,
2013-04-06 00:40:00,51.8,51.3,30.19,WSW,254,3.0,6.0,98,0.00,,,0.00,meteohub,2013-04-06 07:40:00,
2013-04-06 00:45:00,51.8,51.3,30.19,WSW,254,4.0,6.0,98,0.00,,,0.00,meteohub,2013-04-06 07:45:00,
2013-04-06 00:50:00,51.8,51.3,30.19,WSW,254,0.0,6.0,98,0.00,,,0.00,meteohub,2013-04-06 07:50:00,
2013-04-06 00:56:00,52.0,51.4,30.19,WSW,254,0.0,6.0,98,0.00,,,0.00,meteohub,2013-04-06 07:56:00,
2013-04-06 01:01:00,52.0,51.4,30.19,WSW,254,0.0,6.0,98,0.00,,,0.00,meteohub,2013-04-06 08:01:00,
2013-04-06 01:06:00,52.0,51.4,30.19,WSW,254,5.0,6.0,98,0.00,,,0.00,meteohub,2013-04-06 08:06:00,
2013-04-06 01:12:00,52.2,51.6,30.19,WSW,255,5.0,6.0,98,0.00,,,0.00,meteohub,2013-04-06 08:12:00,
2013-04-06 01:17:00,52.2,51.6,30.19,WSW,242,7.0,8.0,98,0.00,,,0.00,meteohub,2013-04-06 08:17:00,
2013-04-06 01:22:00,52.2,51.6,30.19,WSW,253,0.0,8.0,98,0.00,,,0.00,meteohub,2013-04-06 08:22:00,
2013-04-06 01:27:00,52.2,51.6,30.19,WSW,253,7.0,8.0,98,0.00,,,0.00,meteohub,2013-04-06 08:27:00,
2013-04-06 01:32:00,52.2,51.6,30.19,WSW,254,5.0,7.0,98,0.00,,,0.00,meteohub,2013-04-06 08:32:00,
2013-04-06 01:37:00,52.2,51.6,30.19,WSW,254,2.0,7.0,98,0.00,,,0.00,meteohub,2013-04-06 08:37:00,
2013-04-06 01:42:00,52.3,51.8,30.19,WSW,254,0.0,7.0,98,0.00,,,0.00,meteohub,2013-04-06 08:42:00,
2013-04-06 01:47:00,52.3,51.8,30.19,WSW,255,6.0,7.0,98,0.00,,,0.00,meteohub,2013-04-06 08:47:00,
2013-04-06 01:53:00,52.5,52.0,30.19,West,260,5.0,7.0,98,0.00,,,0.00,meteohub,2013-04-06 08:53:00,
2013-04-06 01:58:00,52.5,52.0,30.19,WSW,248,0.0,7.0,98,0.00,,,0.00,meteohub,2013-04-06 08:58:00,
2013-04-06 02:03:00,52.5,52.0,30.19,SW,234,0.0,8.0,98,0.00,,,0.00,meteohub,2013-04-06 09:03:00,
2013-04-06 02:09:00,52.5,52.0,30.19,WSW,245,3.0,8.0,98,0.00,,,0.00,meteohub,2013-04-06 09:09:00,
2013-04-06 02:14:00,52.7,52.2,30.19,WSW,248,4.0,9.0,98,0.00,,,0.00,meteohub,2013-04-06 09:14:00,
2013-04-06 02:19:00,52.7,52.2,30.19,WSW,248,0.0,9.0,98,0.00,,,0.00,meteohub,2013-04-06 09:19:00,
2013-04-06 02:25:00,52.9,52.3,30.19,WSW,249,6.0,9.0,98,0.00,,,0.00,meteohub,2013-04-06 09:25:00,
2013-04-06 02:30:00,52.9,52.3,30.19,WSW,247,0.0,7.0,98,0.00,,,0.00,meteohub,2013-04-06 09:30:00,
2013-04-06 02:35:00,52.9,52.3,30.19,WSW,248,0.0,7.0,98,0.00,,,0.00,meteohub,2013-04-06 09:35:00,
2013-04-06 02:40:00,52.7,52.2,30.19,West,264,3.0,7.0,98,0.00,,,0.00,meteohub,2013-04-06 09:40:00,
2013-04-06 02:45:00,52.7,52.2,30.18,WSW,245,0.0,7.0,98,0.00,,,0.00,meteohub,2013-04-06 09:45:00,
2013-04-06 02:51:00,52.5,52.0,30.18,WSW,246,3.0,8.0,98,0.00,,,0.00,meteohub,2013-04-06 09:51:00,
2013-04-06 02:56:00,52.7,52.2,30.18,WSW,246,3.0,8.0,98,0.00,,,0.00,meteohub,2013-04-06 09:56:00,
2013-04-06 03:01:00,52.5,52.0,30.18,WSW,240,4.0,9.0,98,0.00,,,0.00,meteohub,2013-04-06 10:01:00,
2013-04-06 03:06:00,52.5,52.0,30.18,WSW,245,1.0,9.0,98,0.00,,,0.00,meteohub,2013-04-06 10:06:00,
2013-04-06 03:11:00,52.5,52.0,30.18,WSW,245,0.0,9.0,98,0.00,,,0.00,meteohub,2013-04-06 10:11:00,
2013-04-06 03:16:00,52.5,52.0,30.18,WSW,247,4.0,9.0,98,0.00,,,0.00,meteohub,2013-04-06 10:16:00,
2013-04-06 03:21:00,52.5,52.0,30.17,WSW,247,5.0,8.0,98,0.00,,,0.00,meteohub,2013-04-06 10:21:00,
2013-04-06 03:27:00,52.5,52.0,30.17,WSW,247,3.0,8.0,98,0.00,,,0.00,meteohub,2013-04-06 10:27:00,
2013-04-06 03:32:00,52.5,52.0,30.17,WSW,255,3.0,8.0,98,0.00,,,0.00,meteohub,2013-04-06 10:32:00,
2013-04-06 03:37:00,52.5,52.0,30.17,WSW,255,4.0,8.0,98,0.00,,,0.00,meteohub,2013-04-06 10:37:00,
2013-04-06 03:42:00,52.5,52.0,30.17,WSW,253,4.0,7.0,98,0.00,,,0.00,meteohub,2013-04-06 10:42:00,
2013-04-06 03:47:00,52.5,52.0,30.17,WSW,252,0.0,7.0,98,0.00,,,0.00,meteohub,2013-04-06 10:47:00,
2013-04-06 03:52:00,52.5,52.0,30.17,WSW,243,6.0,8.0,98,0.00,,,0.00,meteohub,2013-04-06 10:52:00,
2013-04-06 03:57:00,52.3,51.8,30.17,SW,229,7.0,10.0,98,0.00,,,0.00,meteohub,2013-04-06 10:57:00,
2013-04-06 04:02:00,52.2,51.6,30.17,SW,222,5.0,10.0,98,0.01,,,0.01,meteohub,2013-04-06 11:02:00,
2013-04-06 04:08:00,52.2,51.6,30.17,SW,232,3.0,10.0,98,0.01,,,0.01,meteohub,2013-04-06 11:08:00,
2013-04-06 04:13:00,52.2,51.6,30.17,WSW,238,3.0,9.0,98,0.01,,,0.01,meteohub,2013-04-06 11:13:00,
2013-04-06 04:18:00,52.0,51.4,30.17,SW,233,3.0,9.0,98,0.01,,,0.01,meteohub,2013-04-06 11:18:00,
2013-04-06 04:23:00,51.8,51.3,30.17,SW,233,4.0,9.0,98,0.01,,,0.01,meteohub,2013-04-06 11:23:00,
2013-04-06 04:29:00,51.6,51.1,30.17,WSW,252,4.0,10.0,98,0.01,,,0.01,meteohub,2013-04-06 11:29:00,
2013-04-06 04:33:00,51.6,51.1,30.17,WSW,240,5.0,10.0,98,0.01,,,0.01,meteohub,2013-04-06 11:33:00,
2013-04-06 04:38:00,51.4,50.9,30.17,SW,223,5.0,10.0,98,0.01,,,0.01,meteohub,2013-04-06 11:38:00,
2013-04-06 04:43:00,51.6,51.1,30.17,SW,222,3.0,10.0,98,0.01,,,0.01,meteohub,2013-04-06 11:43:00,
2013-04-06 04:49:00,51.4,50.9,30.17,SW,236,3.0,8.0,98,0.01,,,0.01,meteohub,2013-04-06 11:49:00,
2013-04-06 04:54:00,51.4,50.9,30.17,WSW,237,7.0,8.0,98,0.01,,,0.01,meteohub,2013-04-06 11:54:00,
2013-04-06 05:00:00,51.4,50.9,30.17,WSW,242,0.0,8.0,98,0.01,,,0.01,meteohub,2013-04-06 12:00:00,
2013-04-06 05:05:00,51.4,50.9,30.17,SW,233,6.0,7.0,98,0.00,,,0.01,meteohub,2013-04-06 12:05:00,
2013-04-06 05:10:00,51.4,50.9,30.17,SW,229,4.0,9.0,98,0.00,,,0.01,meteohub,2013-04-06 12:10:00,
2013-04-06 05:15:00,51.4,50.9,30.17,SW,236,3.0,9.0,98,0.00,,,0.01,meteohub,2013-04-06 12:15:00,
2013-04-06 05:21:00,51.4,50.9,30.17,SW,233,2.0,8.0,98,0.00,,,0.01,meteohub,2013-04-06 12:21:00,
2013-04-06 05:26:00,51.4,50.9,30.17,SW,233,5.0,8.0,98,0.00,,,0.01,meteohub,2013-04-06 12:26:00,
2013-04-06 05:31:00,51.4,50.9,30.17,SW,221,8.0,8.0,98,0.00,,,0.01,meteohub,2013-04-06 12:31:00,
2013-04-06 05:37:00,51.4,50.9,30.17,SW,231,5.0,9.0,98,0.00,,,0.01,meteohub,2013-04-06 12:37:00,
2013-04-06 05:42:00,51.4,50.9,30.17,SW,231,0.0,9.0,98,0.00,,,0.01,meteohub,2013-04-06 12:42:00,
2013-04-06 05:47:00,51.6,51.1,30.18,SW,231,5.0,9.0,98,0.00,,,0.01,meteohub,2013-04-06 12:47:00,
2013-04-06 05:52:00,51.4,50.9,30.18,SW,233,0.0,8.0,98,0.00,,,0.01,meteohub,2013-04-06 12:52:00,
2013-04-06 05:57:00,51.4,50.9,30.18,SW,233,0.0,7.0,98,0.00,,,0.01,meteohub,2013-04-06 12:57:00,
2013-04-06 06:02:00,51.4,50.9,30.18,WSW,242,0.0,7.0,98,0.00,,,0.01,meteohub,2013-04-06 13:02:00,
2013-04-06 06:08:00,51.4,50.9,30.17,SW,236,0.0,11.0,98,0.00,,,0.01,meteohub,2013-04-06 13:08:00,
2013-04-06 06:13:00,51.4,50.9,30.17,SW,236,0.0,11.0,98,0.00,,,0.01,meteohub,2013-04-06 13:13:00,
2013-04-06 06:18:00,51.4,50.9,30.17,SW,236,0.0,11.0,98,0.00,,,0.01,meteohub,2013-04-06 13:18:00,
2013-04-06 06:24:00,51.4,50.9,30.18,SW,236,4.0,6.0,98,0.00,,,0.01,meteohub,2013-04-06 13:24:00,
2013-04-06 06:29:00,51.4,50.9,30.18,SW,231,5.0,5.0,98,0.00,,,0.01,meteohub,2013-04-06 13:29:00,
2013-04-06 06:34:00,51.4,50.9,30.18,SW,221,2.0,5.0,98,0.00,,,0.01,meteohub,2013-04-06 13:34:00,
2013-04-06 06:39:00,51.4,50.9,30.18,SW,221,0.0,8.0,98,0.00,,,0.01,meteohub,2013-04-06 13:39:00,
2013-04-06 06:44:00,51.4,50.9,30.18,SW,221,0.0,8.0,98,0.00,,,0.01,meteohub,2013-04-06 13:44:00,
2013-04-06 06:49:00,51.6,51.1,30.18,SW,221,2.0,8.0,98,0.00,,,0.01,meteohub,2013-04-06 13:49:00,
2013-04-06 06:55:00,51.6,51.1,30.18,SSW,213,5.0,6.0,98,0.00,,,0.01,meteohub,2013-04-06 13:55:00,
2013-04-06 07:00:00,51.6,51.1,30.18,SSW,209,4.0,8.0,98,0.00,,,0.01,meteohub,2013-04-06 14:00:00,
2013-04-06 07:05:00,51.6,51.1,30.18,SSW,209,1.0,8.0,98,0.00,,,0.01,meteohub,2013-04-06 14:05:00,
2013-04-06 07:10:00,51.6,51.1,30.18,SSW,209,3.0,8.0,98,0.00,,,0.01,meteohub,2013-04-06 14:10:00,
2013-04-06 07:16:00,51.6,51.1,30.18,SSW,209,0.0,6.0,98,0.00,,,0.01,meteohub,2013-04-06 14:16:00,
2013-04-06 07:21:00,51.8,51.3,30.19,SSW,209,0.0,6.0,98,0.00,,,0.01,meteohub,2013-04-06 14:21:00,
2013-04-06 07:26:00,51.8,51.3,30.19,SSW,209,0.0,7.0,98,0.00,,,0.01,meteohub,2013-04-06 14:26:00,
2013-04-06 07:31:00,51.8,51.3,30.19,SSW,209,0.0,7.0,98,0.00,,,0.01,meteohub,2013-04-06 14:31:00,
2013-04-06 07:37:00,51.8,51.3,30.19,SSW,209,0.0,7.0,98,0.00,,,0.01,meteohub,2013-04-06 14:37:00,
2013-04-06 07:42:00,52.0,51.4,30.19,SSW,209,0.0,6.0,98,0.00,,,0.01,meteohub,2013-04-06 14:42:00,
2013-04-06 07:47:00,52.0,51.4,30.19,SSW,209,0.0,6.0,98,0.00,,,0.01,meteohub,2013-04-06 14:47:00,
2013-04-06 07:52:00,52.0,51.4,30.19,SSW,209,0.0,1.0,98,0.00,,,0.01,meteohub,2013-04-06 14:52:00,
2013-04-06 07:57:00,52.0,51.4,30.19,SSW,209,0.0,1.0,98,0.00,,,0.01,meteohub,2013-04-06 14:57:00,
2013-04-06 08:02:00,52.0,51.4,30.19,SSW,209,0.0,0.0,98,0.00,,,0.01,meteohub,2013-04-06 15:02:00,
2013-04-06 08:07:00,52.2,51.6,30.19,SSW,209,0.0,0.0,98,0.00,,,0.01,meteohub,2013-04-06 15:07:00,
2013-04-06 08:13:00,52.2,51.6,30.19,SSW,209,0.0,0.0,98,0.00,,,0.01,meteohub,2013-04-06 15:13:00,
2013-04-06 08:18:00,52.3,51.8,30.19,SSW,209,0.0,0.0,98,0.00,,,0.01,meteohub,2013-04-06 15:18:00,
2013-04-06 08:23:00,52.3,51.8,30.19,SSW,209,0.0,0.0,98,0.00,,,0.01,meteohub,2013-04-06 15:23:00,
2013-04-06 08:28:00,52.5,52.0,30.19,SSW,209,0.0,0.0,98,0.00,,,0.01,meteohub,2013-04-06 15:28:00,
2013-04-06 08:34:00,52.5,52.0,30.19,SSW,209,0.0,0.0,98,0.00,,,0.01,meteohub,2013-04-06 15:34:00,
2013-04-06 08:39:00,52.5,52.0,30.19,SSW,209,0.0,0.0,98,0.00,,,0.01,meteohub,2013-04-06 15:39:00,
2013-04-06 08:44:00,52.5,52.0,30.19,SSW,209,0.0,4.0,98,0.00,,,0.01,meteohub,2013-04-06 15:44:00,
2013-04-06 08:50:00,52.7,52.2,30.19,SSW,209,0.0,4.0,98,0.00,,,0.01,meteohub,2013-04-06 15:50:00,
2013-04-06 08:55:00,52.9,52.3,30.19,SSW,209,0.0,4.0,98,0.00,,,0.01,meteohub,2013-04-06 15:55:00,
2013-04-06 09:01:00,52.9,52.3,30.19,SSW,209,0.0,0.0,98,0.00,,,0.01,meteohub,2013-04-06 16:01:00,
2013-04-06 09:06:00,53.1,52.5,30.19,SSW,209,0.0,5.0,98,0.00,,,0.01,meteohub,2013-04-06 16:06:00,
2013-04-06 09:11:00,53.1,52.5,30.19,SSW,209,0.0,5.0,98,0.00,,,0.01,meteohub,2013-04-06 16:11:00,
2013-04-06 09:16:00,53.1,52.5,30.19,SSW,202,0.0,6.0,98,0.00,,,0.01,meteohub,2013-04-06 16:16:00,
2013-04-06 09:21:00,53.1,52.5,30.19,SSW,202,0.0,6.0,98,0.00,,,0.01,meteohub,2013-04-06 16:21:00,
2013-04-06 09:26:00,53.1,52.5,30.19,SSW,202,4.0,6.0,98,0.00,,,0.01,meteohub,2013-04-06 16:26:00,
2013-04-06 09:31:00,53.1,52.5,30.19,SSW,202,0.0,4.0,98,0.00,,,0.01,meteohub,2013-04-06 16:31:00,
2013-04-06 09:37:00,53.2,52.7,30.19,SSW,202,0.0,4.0,98,0.00,,,0.01,meteohub,2013-04-06 16:37:00,
2013-04-06 09:42:00,53.4,52.9,30.19,SSW,200,0.0,6.0,98,0.00,,,0.01,meteohub,2013-04-06 16:42:00,
2013-04-06 09:47:00,53.6,53.1,30.19,SSW,200,0.0,6.0,98,0.00,,,0.01,meteohub,2013-04-06 16:47:00,
2013-04-06 09:52:00,53.4,52.9,30.19,SSW,200,0.0,6.0,98,0.00,,,0.01,meteohub,2013-04-06 16:52:00,
2013-04-06 09:58:00,53.6,53.1,30.19,SSW,200,2.0,5.0,98,0.01,,,0.02,meteohub,2013-04-06 16:58:00,
2013-04-06 10:03:00,53.8,53.4,30.19,SSW,201,4.0,5.0,99,0.01,,,0.02,meteohub,2013-04-06 17:03:00,
2013-04-06 10:09:00,53.8,53.4,30.19,SSW,201,7.0,10.0,99,0.01,,,0.02,meteohub,2013-04-06 17:09:00,
2013-04-06 10:14:00,53.8,53.4,30.19,WSW,240,3.0,10.0,99,0.01,,,0.02,meteohub,2013-04-06 17:14:00,
2013-04-06 10:19:00,53.6,53.2,30.19,SW,218,8.0,10.0,99,0.01,,,0.02,meteohub,2013-04-06 17:19:00,
2013-04-06 10:24:00,53.6,53.1,30.19,SW,214,2.0,11.0,98,0.01,,,0.02,meteohub,2013-04-06 17:24:00,
2013-04-06 10:30:00,53.8,53.4,30.19,SW,228,3.0,11.0,99,0.01,,,0.02,meteohub,2013-04-06 17:30:00,
2013-04-06 10:35:00,53.6,53.1,30.20,SW,221,2.0,11.0,98,0.01,,,0.02,meteohub,2013-04-06 17:35:00,
2013-04-06 10:40:00,53.6,53.1,30.19,WSW,238,5.0,11.0,98,0.01,,,0.02,meteohub,2013-04-06 17:40:00,
2013-04-06 10:45:00,53.4,52.9,30.20,SW,231,4.0,11.0,98,0.01,,,0.02,meteohub,2013-04-06 17:45:00,
2013-04-06 10:51:00,53.4,52.9,30.19,SW,229,3.0,10.0,98,0.01,,,0.02,meteohub,2013-04-06 17:51:00,
2013-04-06 10:56:00,53.4,52.9,30.20,SSW,207,2.0,11.0,98,0.00,,,0.02,meteohub,2013-04-06 17:56:00,
2013-04-06 11:01:00,53.4,52.9,30.20,SW,230,6.0,13.0,98,0.00,,,0.02,meteohub,2013-04-06 18:01:00,
2013-04-06 11:07:00,53.4,52.9,30.21,West,260,9.0,13.0,98,0.00,,,0.02,meteohub,2013-04-06 18:07:00,
2013-04-06 11:12:00,53.4,52.9,30.21,SW,219,3.0,13.0,98,0.00,,,0.02,meteohub,2013-04-06 18:12:00,
2013-04-06 11:17:00,53.4,52.9,30.21,WSW,240,4.0,13.0,98,0.00,,,0.02,meteohub,2013-04-06 18:17:00,
2013-04-06 11:22:00,53.4,52.9,30.22,SSW,212,11.0,13.0,98,0.00,,,0.02,meteohub,2013-04-06 18:22:00,
2013-04-06 11:27:00,53.4,52.9,30.22,West,267,8.0,13.0,98,0.00,,,0.02,meteohub,2013-04-06 18:27:00,
2013-04-06 11:32:00,53.4,52.9,30.22,WSW,252,7.0,12.0,98,0.00,,,0.02,meteohub,2013-04-06 18:32:00,
2013-04-06 11:37:00,53.4,52.9,30.22,WSW,247,4.0,12.0,98,0.00,,,0.02,meteohub,2013-04-06 18:37:00,
2013-04-06 11:42:00,53.4,52.9,30.21,SW,214,6.0,12.0,98,0.00,,,0.02,meteohub,2013-04-06 18:42:00,
2013-04-06 11:48:00,53.6,53.1,30.22,SSW,204,3.0,13.0,98,0.00,,,0.02,meteohub,2013-04-06 18:48:00,
2013-04-06 11:53:00,53.8,53.4,30.22,SW,219,5.0,13.0,99,0.00,,,0.02,meteohub,2013-04-06 18:53:00,
2013-04-06 11:58:00,54.0,53.6,30.22,SW,229,5.0,13.0,99,0.00,,,0.02,meteohub,2013-04-06 18:58:00,
2013-04-06 12:04:00,53.8,53.4,30.22,SSW,208,8.0,12.0,99,0.00,,,0.02,meteohub,2013-04-06 19:04:00,
2013-04-06 12:09:00,53.8,53.4,30.22,SW,215,6.0,14.0,99,0.00,,,0.02,meteohub,2013-04-06 19:09:00,
2013-04-06 12:14:00,54.0,53.6,30.21,WSW,243,6.0,14.0,99,0.00,,,0.02,meteohub,2013-04-06 19:14:00,
2013-04-06 12:19:00,54.0,53.6,30.21,SW,224,7.0,14.0,99,0.00,,,0.02,meteohub,2013-04-06 19:19:00,
2013-04-06 12:24:00,54.0,53.4,30.21,WSW,238,6.0,12.0,98,0.00,,,0.02,meteohub,2013-04-06 19:24:00,
2013-04-06 12:29:00,54.0,53.6,30.21,SW,224,9.0,12.0,99,0.00,,,0.02,meteohub,2013-04-06 19:29:00,
2013-04-06 12:35:00,54.0,53.4,30.21,SW,233,4.0,12.0,98,0.00,,,0.02,meteohub,2013-04-06 19:35:00,
2013-04-06 12:40:00,54.0,53.6,30.22,SW,233,8.0,13.0,99,0.00,,,0.02,meteohub,2013-04-06 19:40:00,
2013-04-06 12:45:00,54.0,53.6,30.21,SW,223,9.0,13.0,99,0.00,,,0.02,meteohub,2013-04-06 19:45:00,
2013-04-06 12:51:00,54.0,53.6,30.21,WSW,239,6.0,13.0,99,0.00,,,0.02,meteohub,2013-04-06 19:51:00,
2013-04-06 12:56:00,54.0,53.4,30.21,WSW,239,8.0,11.0,98,0.00,,,0.02,meteohub,2013-04-06 19:56:00,
2013-04-06 13:02:00,53.8,53.4,30.21,SW,216,5.0,11.0,99,0.00,,,0.02,meteohub,2013-04-06 20:02:00,
2013-04-06 13:07:00,54.0,53.6,30.21,WSW,252,3.0,11.0,99,0.00,,,0.02,meteohub,2013-04-06 20:07:00,
2013-04-06 13:12:00,54.1,53.6,30.20,SW,233,3.0,11.0,98,0.00,,,0.02,meteohub,2013-04-06 20:12:00,
2013-04-06 13:17:00,54.1,53.6,30.20,SW,233,3.0,11.0,98,0.00,,,0.02,meteohub,2013-04-06 20:17:00,
2013-04-06 13:22:00,54.1,53.6,30.20,SW,228,4.0,9.0,98,0.00,,,0.02,meteohub,2013-04-06 20:22:00,
2013-04-06 13:27:00,54.0,53.4,30.20,SW,215,6.0,10.0,98,0.00,,,0.02,meteohub,2013-04-06 20:27:00,
2013-04-06 13:33:00,54.0,53.6,30.20,SW,234,0.0,10.0,99,0.00,,,0.02,meteohub,2013-04-06 20:33:00,
2013-04-06 13:38:00,54.0,53.4,30.20,WSW,238,8.0,10.0,98,0.00,,,0.02,meteohub,2013-04-06 20:38:00,
2013-04-06 13:43:00,54.0,53.4,30.20,WSW,253,7.0,10.0,98,0.00,,,0.02,meteohub,2013-04-06 20:43:00,
2013-04-06 13:48:00,54.1,53.6,30.20,West,264,1.0,9.0,98,0.00,,,0.02,meteohub,2013-04-06 20:48:00,
2013-04-06 13:54:00,54.0,53.4,30.20,West,275,7.0,9.0,98,0.00,,,0.02,meteohub,2013-04-06 20:54:00,
2013-04-06 13:59:00,54.0,53.6,30.20,WSW,239,4.0,11.0,99,0.00,,,0.02,meteohub,2013-04-06 20:59:00,
2013-04-06 14:04:00,54.0,53.6,30.20,West,262,5.0,11.0,99,0.00,,,0.02,meteohub,2013-04-06 21:04:00,
2013-04-06 14:09:00,54.0,53.4,30.20,WSW,246,7.0,11.0,98,0.00,,,0.02,meteohub,2013-04-06 21:09:00,
2013-04-06 14:14:00,54.0,53.4,30.20,West,266,6.0,11.0,98,0.00,,,0.02,meteohub,2013-04-06 21:14:00,
2013-04-06 14:20:00,54.1,53.6,30.20,WSW,244,0.0,11.0,98,0.00,,,0.02,meteohub,2013-04-06 21:20:00,
2013-04-06 14:25:00,54.3,54.0,30.20,WSW,248,7.0,9.0,99,0.00,,,0.02,meteohub,2013-04-06 21:25:00,
2013-04-06 14:31:00,54.3,54.0,30.20,West,264,2.0,11.0,99,0.00,,,0.02,meteohub,2013-04-06 21:31:00,
2013-04-06 14:36:00,54.1,53.8,30.20,WSW,257,7.0,11.0,99,0.00,,,0.02,meteohub,2013-04-06 21:36:00,
2013-04-06 14:41:00,54.0,53.4,30.20,WSW,252,5.0,10.0,98,0.00,,,0.02,meteohub,2013-04-06 21:41:00,
2013-04-06 14:46:00,54.1,53.6,30.20,West,266,0.0,10.0,98,0.00,,,0.02,meteohub,2013-04-06 21:46:00,
2013-04-06 14:52:00,54.5,54.1,30.20,West,271,8.0,10.0,99,0.00,,,0.02,meteohub,2013-04-06 21:52:00,
2013-04-06 14:57:00,54.3,54.0,30.20,West,264,5.0,10.0,99,0.00,,,0.02,meteohub,2013-04-06 21:57:00,
2013-04-06 15:02:00,54.3,54.0,30.19,West,260,7.0,10.0,99,0.00,,,0.02,meteohub,2013-04-06 22:02:00,
2013-04-06 15:07:00,54.9,54.3,30.20,West,260,7.0,11.0,98,0.00,,,0.02,meteohub,2013-04-06 22:07:00,
2013-04-06 15:12:00,54.9,54.3,30.20,WSW,258,3.0,11.0,98,0.00,,,0.02,meteohub,2013-04-06 22:12:00,
2013-04-06 15:18:00,55.0,54.5,30.19,West,271,3.0,11.0,98,0.00,,,0.02,meteohub,2013-04-06 22:18:00,
2013-04-06 15:23:00,55.2,54.7,30.19,West,276,4.0,14.0,98,0.00,,,0.02,meteohub,2013-04-06 22:23:00,
2013-04-06 15:28:00,55.4,54.9,30.19,WSW,245,5.0,14.0,98,0.00,,,0.02,meteohub,2013-04-06 22:28:00,
2013-04-06 15:34:00,55.6,55.0,30.19,WSW,246,6.0,14.0,98,0.00,,,0.02,meteohub,2013-04-06 22:34:00,
2013-04-06 15:39:00,55.6,55.0,30.19,WSW,256,5.0,12.0,98,0.00,,,0.02,meteohub,2013-04-06 22:39:00,
2013-04-06 15:44:00,55.2,54.3,30.19,West,269,7.0,12.0,97,0.00,,,0.02,meteohub,2013-04-06 22:44:00,
2013-04-06 15:50:00,55.0,54.1,30.19,West,278,5.0,11.0,97,0.00,,,0.02,meteohub,2013-04-06 22:50:00,
2013-04-06 15:55:00,55.0,54.1,30.19,WSW,255,3.0,11.0,97,0.00,,,0.02,meteohub,2013-04-06 22:55:00,
2013-04-06 16:00:00,55.0,54.1,30.19,West,266,4.0,10.0,97,0.00,,,0.02,meteohub,2013-04-06 23:00:00,
2013-04-06 16:06:00,55.0,54.1,30.19,West,270,9.0,10.0,97,0.00,,,0.02,meteohub,2013-04-06 23:06:00,
2013-04-06 16:11:00,54.9,53.8,30.19,West,262,4.0,11.0,96,0.00,,,0.02,meteohub,2013-04-06 23:11:00,
2013-04-06 16:17:00,54.9,53.8,30.19,WNW,282,2.0,11.0,96,0.00,,,0.02,meteohub,2013-04-06 23:17:00,
2013-04-06 16:22:00,54.7,53.6,30.19,West,269,3.0,11.0,96,0.00,,,0.02,meteohub,2013-04-06 23:22:00,
2013-04-06 16:27:00,54.9,53.8,30.19,West,281,7.0,11.0,96,0.00,,,0.02,meteohub,2013-04-06 23:27:00,
2013-04-06 16:32:00,54.7,53.6,30.19,West,269,4.0,12.0,96,0.00,,,0.02,meteohub,2013-04-06 23:32:00,
2013-04-06 16:37:00,54.7,53.6,30.18,WSW,254,12.0,12.0,96,0.00,,,0.02,meteohub,2013-04-06 23:37:00,
2013-04-06 16:42:00,54.5,53.4,30.18,West,264,6.0,12.0,96,0.00,,,0.02,meteohub,2013-04-06 23:42:00,
2013-04-06 16:47:00,54.3,52.9,30.18,West,269,6.0,12.0,95,0.00,,,0.02,meteohub,2013-04-06 23:47:00,
2013-04-06 16:52:00,54.3,52.9,30.18,West,279,2.0,12.0,95,0.00,,,0.02,meteohub,2013-04-06 23:52:00,
2013-04-06 16:57:00,54.3,53.2,30.18,West,260,4.0,9.0,96,0.00,,,0.02,meteohub,2013-04-06 23:57:00,
2013-04-06 17:03:00,54.3,52.9,30.18,West,269,8.0,11.0,95,0.00,,,0.02,meteohub,2013-04-07 00:03:00,
2013-04-06 17:08:00,54.1,52.7,30.18,West,278,6.0,11.0,95,0.00,,,0.02,meteohub,2013-04-07 00:08:00,
2013-04-06 17:13:00,54.1,53.1,30.18,West,273,6.0,11.0,96,0.00,,,0.02,meteohub,2013-04-07 00:13:00,
2013-04-06 17:19:00,54.1,52.7,30.18,West,264,4.0,10.0,95,0.00,,,0.02,meteohub,2013-04-07 00:19:00,
2013-04-06 17:24:00,54.3,52.9,30.18,West,278,6.0,10.0,95,0.00,,,0.02,meteohub,2013-04-07 00:24:00,
2013-04-06 17:30:00,54.1,52.7,30.18,WNW,283,8.0,10.0,95,0.00,,,0.02,meteohub,2013-04-07 00:30:00,
2013-04-06 17:35:00,54.0,52.5,30.17,WSW,258,6.0,11.0,95,0.00,,,0.02,meteohub,2013-04-07 00:35:00,
2013-04-06 17:40:00,54.0,52.3,30.17,West,270,6.0,11.0,94,0.00,,,0.02,meteohub,2013-04-07 00:40:00,
2013-04-06 17:45:00,53.8,52.2,30.17,WSW,241,3.0,11.0,94,0.00,,,0.02,meteohub,2013-04-07 00:45:00,
2013-04-06 17:50:00,54.0,52.3,30.17,WSW,256,6.0,11.0,94,0.00,,,0.02,meteohub,2013-04-07 00:50:00,
2013-04-06 17:55:00,54.0,52.3,30.17,WSW,245,7.0,11.0,94,0.00,,,0.02,meteohub,2013-04-07 00:55:00,
2013-04-06 18:00:00,53.8,52.2,30.17,West,281,5.0,10.0,94,0.00,,,0.02,meteohub,2013-04-07 01:00:00,
2013-04-06 18:06:00,54.0,52.3,30.17,West,279,2.0,10.0,94,0.00,,,0.02,meteohub,2013-04-07 01:06:00,
2013-04-06 18:11:00,54.0,52.3,30.18,West,265,4.0,11.0,94,0.00,,,0.02,meteohub,2013-04-07 01:11:00,
2013-04-06 18:16:00,54.0,52.3,30.17,West,260,9.0,11.0,94,0.00,,,0.02,meteohub,2013-04-07 01:16:00,
2013-04-06 18:22:00,53.8,52.2,30.17,WSW,250,5.0,11.0,94,0.00,,,0.02,meteohub,2013-04-07 01:22:00,
2013-04-06 18:27:00,53.8,52.2,30.17,West,274,5.0,10.0,94,0.00,,,0.02,meteohub,2013-04-07 01:27:00,
2013-04-06 18:32:00,53.8,52.2,30.17,West,259,4.0,10.0,94,0.00,,,0.02,meteohub,2013-04-07 01:32:00,
2013-04-06 18:37:00,53.8,52.2,30.17,West,276,7.0,11.0,94,0.00,,,0.02,meteohub,2013-04-07 01:37:00,
2013-04-06 18:42:00,53.8,52.2,30.17,West,262,5.0,11.0,94,0.00,,,0.02,meteohub,2013-04-07 01:42:00,
2013-04-06 18:47:00,53.6,52.0,30.17,West,277,3.0,10.0,94,0.00,,,0.02,meteohub,2013-04-07 01:47:00,
2013-04-06 18:53:00,53.6,52.0,30.17,WSW,252,3.0,10.0,94,0.00,,,0.02,meteohub,2013-04-07 01:53:00,
2013-04-06 18:58:00,53.4,51.8,30.17,West,266,3.0,10.0,94,0.00,,,0.02,meteohub,2013-04-07 01:58:00,
2013-04-06 19:03:00,53.4,51.8,30.17,West,259,0.0,10.0,94,0.00,,,0.02,meteohub,2013-04-07 02:03:00,
2013-04-06 19:08:00,53.4,51.8,30.17,West,264,8.0,9.0,94,0.00,,,0.02,meteohub,2013-04-07 02:08:00,
2013-04-06 19:14:00,53.2,51.6,30.17,WSW,252,11.0,11.0,94,0.00,,,0.02,meteohub,2013-04-07 02:14:00,
2013-04-06 19:20:00,53.2,51.6,30.17,WSW,246,6.0,13.0,94,0.00,,,0.02,meteohub,2013-04-07 02:20:00,
2013-04-06 19:25:00,53.2,51.6,30.17,West,264,5.0,13.0,94,0.00,,,0.02,meteohub,2013-04-07 02:25:00,
2013-04-06 19:30:00,53.2,51.6,30.17,West,264,8.0,13.0,94,0.00,,,0.02,meteohub,2013-04-07 02:30:00,
2013-04-06 19:35:00,53.1,51.4,30.17,West,272,4.0,13.0,94,0.00,,,0.02,meteohub,2013-04-07 02:35:00,
2013-04-06 19:40:00,53.2,51.8,30.17,West,264,5.0,13.0,95,0.00,,,0.02,meteohub,2013-04-07 02:40:00,
2013-04-06 19:46:00,53.2,51.6,30.17,West,281,4.0,12.0,94,0.00,,,0.02,meteohub,2013-04-07 02:46:00,
2013-04-06 19:51:00,53.1,51.4,30.17,WSW,244,5.0,11.0,94,0.00,,,0.02,meteohub,2013-04-07 02:51:00,
2013-04-06 19:56:00,53.1,51.4,30.17,WNW,287,7.0,12.0,94,0.00,,,0.02,meteohub,2013-04-07 02:56:00,
2013-04-06 20:01:00,53.1,51.4,30.17,WNW,285,3.0,12.0,94,0.00,,,0.02,meteohub,2013-04-07 03:01:00,
2013-04-06 20:07:00,52.9,51.3,30.17,WSW,252,3.0,12.0,94,0.00,,,0.02,meteohub,2013-04-07 03:07:00,
2013-04-06 20:12:00,52.9,51.3,30.17,West,268,4.0,12.0,94,0.00,,,0.02,meteohub,2013-04-07 03:12:00,
2013-04-06 20:17:00,52.9,51.3,30.18,West,274,5.0,11.0,94,0.00,,,0.02,meteohub,2013-04-07 03:17:00,
2013-04-06 20:22:00,52.9,50.9,30.17,WSW,255,3.0,11.0,93,0.00,,,0.02,meteohub,2013-04-07 03:22:00,
2013-04-06 20:27:00,52.9,50.9,30.17,WSW,246,6.0,11.0,93,0.00,,,0.02,meteohub,2013-04-07 03:27:00,
2013-04-06 20:32:00,52.9,50.9,30.18,West,271,9.0,11.0,93,0.00,,,0.02,meteohub,2013-04-07 03:32:00,
2013-04-06 20:37:00,52.9,50.9,30.18,WSW,253,7.0,11.0,93,0.00,,,0.02,meteohub,2013-04-07 03:37:00,
2013-04-06 20:42:00,52.9,50.9,30.18,WSW,251,6.0,9.0,93,0.00,,,0.02,meteohub,2013-04-07 03:42:00,
2013-04-06 20:47:00,52.7,50.7,30.18,West,262,4.0,10.0,93,0.00,,,0.02,meteohub,2013-04-07 03:47:00,
2013-04-06 20:53:00,52.5,50.5,30.18,WSW,237,0.0,10.0,93,0.00,,,0.02,meteohub,2013-04-07 03:53:00,
2013-04-06 20:58:00,52.5,50.5,30.18,West,264,1.0,10.0,93,0.00,,,0.02,meteohub,2013-04-07 03:58:00,
2013-04-06 21:00:00,52.5,50.5,30.18,WSW,257,2.0,10.0,93,0.00,,,0.02,meteohub,2013-04-07 04:00:00,
2013-04-06 21:02:00,52.5,50.5,30.18,WSW,250,3.0,10.0,93,0.00,,,0.02,meteohub,2013-04-07 04:02:00,
2013-04-06 21:07:00,52.7,50.7,30.18,WSW,252,0.0,8.0,93,0.00,,,0.02,meteohub,2013-04-07 04:07:00,
2013-04-06 21:12:00,52.9,50.9,30.18,West,261,3.0,8.0,93,0.00,,,0.02,meteohub,2013-04-07 04:12:00,
2013-04-06 21:17:00,52.5,50.5,30.18,West,280,7.0,7.0,93,0.00,,,0.02,meteohub,2013-04-07 04:17:00,
2013-04-06 21:22:00,52.3,50.4,30.18,West,278,2.0,9.0,93,0.00,,,0.02,meteohub,2013-04-07 04:22:00,
2013-04-06 21:28:00,52.3,50.4,30.18,West,262,6.0,11.0,93,0.00,,,0.02,meteohub,2013-04-07 04:28:00,
2013-04-06 21:33:00,52.2,50.2,30.18,West,276,3.0,11.0,93,0.00,,,0.02,meteohub,2013-04-07 04:33:00,
2013-04-06 21:38:00,52.2,50.2,30.18,West,267,5.0,11.0,93,0.00,,,0.02,meteohub,2013-04-07 04:38:00,
2013-04-06 21:43:00,52.3,50.4,30.18,WSW,257,4.0,10.0,93,0.00,,,0.02,meteohub,2013-04-07 04:43:00,
2013-04-06 21:49:00,52.3,50.4,30.19,West,268,3.0,10.0,93,0.00,,,0.02,meteohub,2013-04-07 04:49:00,
2013-04-06 21:54:00,52.3,50.0,30.19,West,266,7.0,10.0,92,0.00,,,0.02,meteohub,2013-04-07 04:54:00,
2013-04-06 21:59:00,52.2,49.8,30.19,West,269,4.0,8.0,92,0.00,,,0.02,meteohub,2013-04-07 04:59:00,
2013-04-06 22:05:00,52.2,50.2,30.19,West,272,2.0,8.0,93,0.00,,,0.02,meteohub,2013-04-07 05:05:00,
2013-04-06 22:10:00,52.2,49.8,30.19,West,266,5.0,11.0,92,0.00,,,0.02,meteohub,2013-04-07 05:10:00,
2013-04-06 22:15:00,52.2,49.8,30.19,West,269,2.0,11.0,92,0.00,,,0.02,meteohub,2013-04-07 05:15:00,
2013-04-06 22:21:00,52.2,49.8,30.19,West,281,1.0,9.0,92,0.00,,,0.02,meteohub,2013-04-07 05:21:00,
2013-04-06 22:26:00,52.2,49.8,30.19,West,264,10.0,10.0,92,0.00,,,0.02,meteohub,2013-04-07 05:26:00,
2013-04-06 22:31:00,52.0,49.6,30.19,West,274,2.0,10.0,92,0.00,,,0.02,meteohub,2013-04-07 05:31:00,
2013-04-06 22:36:00,52.0,49.6,30.20,WNW,286,3.0,10.0,92,0.00,,,0.02,meteohub,2013-04-07 05:36:00,
2013-04-06 22:42:00,52.0,49.6,30.20,West,263,0.0,10.0,92,0.00,,,0.02,meteohub,2013-04-07 05:42:00,
2013-04-06 22:47:00,52.2,49.8,30.20,West,274,6.0,11.0,92,0.00,,,0.02,meteohub,2013-04-07 05:47:00,
2013-04-06 22:52:00,52.2,49.8,30.20,West,271,3.0,11.0,92,0.00,,,0.02,meteohub,2013-04-07 05:52:00,
2013-04-06 22:57:00,52.2,49.8,30.20,West,262,3.0,9.0,92,0.00,,,0.02,meteohub,2013-04-07 05:57:00,
2013-04-06 23:02:00,52.2,49.8,30.20,West,260,4.0,9.0,92,0.00,,,0.02,meteohub,2013-04-07 06:02:00,
2013-04-06 23:07:00,52.2,49.8,30.19,WSW,252,2.0,9.0,92,0.00,,,0.02,meteohub,2013-04-07 06:07:00,
2013-04-06 23:12:00,52.2,49.8,30.19,WSW,252,4.0,9.0,92,0.00,,,0.02,meteohub,2013-04-07 06:12:00,
2013-04-06 23:17:00,52.2,50.2,30.19,West,262,4.0,9.0,93,0.00,,,0.02,meteohub,2013-04-07 06:17:00,
2013-04-06 23:22:00,52.2,50.2,30.19,West,259,3.0,9.0,93,0.00,,,0.02,meteohub,2013-04-07 06:22:00,
2013-04-06 23:27:00,52.2,50.2,30.19,WSW,252,3.0,9.0,93,0.00,,,0.02,meteohub,2013-04-07 06:27:00,
2013-04-06 23:32:00,52.2,50.2,30.19,WSW,252,0.0,7.0,93,0.00,,,0.02,meteohub,2013-04-07 06:32:00,
2013-04-06 23:37:00,52.2,50.2,30.19,WSW,258,2.0,7.0,93,0.00,,,0.02,meteohub,2013-04-07 06:37:00,
2013-04-06 23:42:00,52.2,50.2,30.19,West,262,6.0,6.0,93,0.00,,,0.02,meteohub,2013-04-07 06:42:00,
2013-04-06 23:47:00,52.0,50.0,30.19,West,262,2.0,7.0,93,0.00,,,0.02,meteohub,2013-04-07 06:47:00,
2013-04-06 23:52:00,52.0,50.0,30.19,WSW,249,4.0,8.0,93,0.00,,,0.02,meteohub,2013-04-07 06:52:00,
2013-04-06 23:57:00,51.8,49.8,30.19,West,266,3.0,8.0,93,0.00,,,0.02,meteohub,2013-04-07 06:57:00,